Guthrie, North Carolina
Current Conditions -  °F | °C
As of 8:54 PM on Saturday 22 Nov 2014 (Local Time) from KGSO Reporting Station
Clear Clear  
Wind Chill: 42°   Ceiling: Unl
Heat Index: 42°   Visibility: 7mi
Dew Point: 18°   Wind: 0mph
Humidity: 38%   Direction: NA
Pressure: 30.33"   Gusts: NA
Location:  36.1188°N, 80.075°W
Report Text: KGSO 230154Z 00000KT 7SM CLR 06/M08 A3033 RMK AO2 SLP275 T00561078
Loading
Personal Weather Stations






























Interactive Weather Map New forecast layout! Learn more

10-Day Weather Forecast

Advertisements
Track Severe Weather on mobile